Concerto — JJ3855 — position and weather

sailwx.info

Track history (hours):
 
Tides and Currents Weather Stations Pressure Air Temp Water Temp Dewpoint Dewpoint Depression Visibility Wind Speed Wind Dir Waves Ship Positions

Concerto

Last reported at 2014-Jul-22 11:33 UTC. Time now 2014-Jul-22 23:12 UTC.
Position N 34°38' E 135°11'.

Length 62 m; draft 3 m.

Type: Passenger vessel. MMSI: 431000448.

Date/timePositionNaut miles runAvg speedWind from/ knotsBaromVisibWave heightAir tempDewpointWater temp
2014-Jul-22 11:33N 34°38' E 135°11'2 1.7
2014-Jul-22 10:33N 34°40' E 135°11'0 0.4
2014-Jul-22 09:33N 34°39' E 135°11'1 1.0
2014-Jul-22 08:33N 34°39' E 135°11'2 2.2
2014-Jul-22 07:30N 34°41' E 135°11'3 3.6
2014-Jul-22 06:33N 34°38' E 135°09'3 3.4
2014-Jul-22 05:33N 34°41' E 135°11'0 0.3
2014-Jul-22 04:33N 34°41' E 135°11'3 3.3
2014-Jul-22 03:33N 34°38' E 135°09'1 0.1
2014-Jul-21 11:33N 34°38' E 135°10'2 2.3
2014-Jul-21 10:32N 34°40' E 135°11'1 0.6
2014-Jul-21 09:33N 34°39' E 135°11'1 1.0
2014-Jul-21 08:33N 34°39' E 135°11'2 1.9
2014-Jul-21 07:22N 34°41' E 135°11'4 4.3
2014-Jul-21 06:33N 34°38' E 135°09'4 3.3
2014-Jul-21 05:28N 34°41' E 135°11'0 0.4
2014-Jul-21 04:33N 34°40' E 135°11'3 3.3
2014-Jul-21 03:33N 34°38' E 135°09'3 3.5
2014-Jul-21 02:33N 34°41' E 135°11'3 0.2
2014-Jul-20 11:33N 34°38' E 135°11'2 1.9
2014-Jul-20 10:33N 34°40' E 135°11'1 0.8
2014-Jul-20 09:34N 34°39' E 135°11'0 0.3
2014-Jul-20 08:33N 34°39' E 135°11'2 1.9
2014-Jul-20 07:32N 34°41' E 135°11'3 3.2
2014-Jul-20 06:33N 34°38' E 135°09'3 3.1
2014-Jul-20 05:33N 34°41' E 135°11'0 0.3
2014-Jul-20 04:33N 34°41' E 135°11'3 3.1
2014-Jul-20 03:33N 34°38' E 135°09'3 3.2
2014-Jul-20 02:33N 34°41' E 135°11'3 0.2
2014-Jul-19 11:33N 34°38' E 135°11'2 1.9
2014-Jul-19 10:33N 34°40' E 135°11'0 0.4
2014-Jul-19 09:32N 34°39' E 135°11'1 1.4
2014-Jul-19 08:33N 34°39' E 135°10'2 2.2
2014-Jul-19 07:30N 34°41' E 135°11'2 2.3
2014-Jul-19 06:24N 34°38' E 135°10'3 2.8
2014-Jul-19 05:31N 34°41' E 135°11'0 0.3
2014-Jul-19 04:33N 34°41' E 135°11'3 2.5
2014-Jul-19 03:33N 34°38' E 135°10'3 2.6
2014-Jul-19 02:33N 34°41' E 135°11'0 0.1
2014-Jul-19 01:33N 34°41' E 135°11'0 0.0
2014-Jul-19 00:33N 34°41' E 135°11'0 0.0
2014-Jul-18 23:33N 34°41' E 135°11'0 0.0
2014-Jul-18 22:33N 34°41' E 135°11'0 0.0
2014-Jul-18 21:33N 34°41' E 135°11'0 0.0
2014-Jul-18 20:33N 34°41' E 135°11'0 0.0
2014-Jul-18 19:33N 34°41' E 135°11'0 0.0
2014-Jul-18 18:33N 34°41' E 135°11'0 0.0
2014-Jul-18 17:33N 34°41' E 135°11'0 0.0
2014-Jul-18 16:33N 34°41' E 135°11'0 0.0
2014-Jul-18 15:33N 34°41' E 135°11'0 0.0
2014-Jul-18 14:33N 34°41' E 135°11'0 0.0
2014-Jul-18 13:33N 34°41' E 135°11'0 0.0
2014-Jul-18 12:33N 34°41' E 135°11'3 2.7
2014-Jul-18 11:33N 34°38' E 135°11'2 1.7
2014-Jul-18 10:33N 34°40' E 135°11'1 0.6
2014-Jul-18 09:33N 34°39' E 135°11'1 0.9
2014-Jul-18 08:33N 34°38' E 135°11'2 2.1
2014-Jul-18 07:26N 34°41' E 135°11'4 4.0
2014-Jul-18 06:33N 34°38' E 135°09'4 3.5
2014-Jul-18 05:33N 34°41' E 135°11'0 0.3
2014-Jul-18 04:33N 34°41' E 135°11'3 3.5
2014-Jul-18 03:33N 34°38' E 135°09'4 3.6
2014-Jul-18 02:33N 34°41' E 135°11'3 0.2
2014-Jul-17 11:33N 34°38' E 135°10'2 2.3
2014-Jul-17 10:33N 34°40' E 135°11'1 0.8
2014-Jul-17 09:33N 34°39' E 135°11'1 0.9
2014-Jul-17 08:33N 34°39' E 135°11'2 2.2
2014-Jul-17 07:29N 34°41' E 135°11'3 3.6
2014-Jul-17 06:33N 34°38' E 135°09'3 2.7
2014-Jul-17 05:19N 34°41' E 135°11'0 0.5
2014-Jul-17 04:33N 34°41' E 135°11'3 3.0
2014-Jul-17 03:33N 34°38' E 135°09'3 3.1
2014-Jul-17 02:33N 34°41' E 135°11'3 0.2
2014-Jul-16 11:33N 34°38' E 135°11'2 1.6
2014-Jul-16 10:33N 34°40' E 135°11'1 0.6
2014-Jul-16 09:33N 34°39' E 135°11'1 0.8
2014-Jul-16 08:34N 34°39' E 135°11'2 2.1
2014-Jul-16 07:30N 34°41' E 135°11'3 3.2
2014-Jul-16 06:33N 34°38' E 135°10'3 2.8
2014-Jul-16 05:29N 34°41' E 135°11'1 0.6
2014-Jul-16 04:33N 34°40' E 135°12'3 2.8
2014-Jul-16 03:33N 34°38' E 135°10'1 0.0
2014-Jul-15 11:33N 34°38' E 135°10'3 2.8
2014-Jul-15 10:33N 34°41' E 135°11'1 1.4
2014-Jul-15 09:33N 34°39' E 135°11'1 1.0
2014-Jul-15 08:33N 34°38' E 135°11'2 2.1
2014-Jul-15 07:23N 34°41' E 135°11'3 4.0
2014-Jul-15 06:33N 34°38' E 135°09'3 3.0
2014-Jul-15 05:27N 34°41' E 135°11'0 0.4
2014-Jul-15 04:33N 34°41' E 135°11'3 3.5
2014-Jul-15 03:33N 34°38' E 135°09'1 0.1
2014-Jul-14 11:33N 34°38' E 135°11'2 2.0
2014-Jul-14 10:33N 34°40' E 135°11'1 0.9
2014-Jul-14 09:34N 34°39' E 135°11'1 0.7
2014-Jul-14 08:34N 34°39' E 135°11'2 1.9
2014-Jul-14 07:24N 34°41' E 135°11'3 3.7
2014-Jul-14 06:33N 34°38' E 135°09'3 2.9
2014-Jul-14 05:28N 34°41' E 135°11'0 0.2
2014-Jul-14 04:33N 34°41' E 135°11'3 3.2
2014-Jul-14 03:33N 34°38' E 135°09'3 3.2
2014-Jul-14 02:32N 34°41' E 135°11'3 0.2
2014-Jul-13 11:33N 34°38' E 135°11'2 1.7
2014-Jul-13 10:33N 34°40' E 135°11'1 0.5
2014-Jul-13 09:33N 34°39' E 135°11'1 0.9
2014-Jul-13 08:33N 34°38' E 135°11'2 2.1
2014-Jul-13 07:23N 34°41' E 135°11'3 3.4
2014-Jul-13 06:33N 34°38' E 135°10'3 2.8
2014-Jul-13 05:33N 34°41' E 135°11'0 0.3
2014-Jul-13 04:33N 34°41' E 135°11'3 3.3
2014-Jul-13 03:33N 34°38' E 135°09'3 3.5
2014-Jul-13 02:33N 34°41' E 135°11'3 0.2
2014-Jul-12 11:33N 34°38' E 135°11'  
Track history (hours):
 
Tides and Currents Weather Stations Pressure Air Temp Water Temp Dewpoint Dewpoint Depression Visibility Wind Speed Wind Dir Waves Ship Positions

Concerto

Last reported at 2014-Jul-22 11:33 UTC. Time now 2014-Jul-22 23:12 UTC.
Position N 34°38' E 135°11'.

Length 62 m; draft 3 m.

Type: Passenger vessel. MMSI: 431000448.

Date/timePositionNaut miles runAvg speedWind from/ knotsBaromVisibWave heightAir tempDewpointWater temp
2014-Jul-22 11:33N 34°38' E 135°11'2 1.7
2014-Jul-22 10:33N 34°40' E 135°11'0 0.4
2014-Jul-22 09:33N 34°39' E 135°11'1 1.0
2014-Jul-22 08:33N 34°39' E 135°11'2 2.2
2014-Jul-22 07:30N 34°41' E 135°11'3 3.6
2014-Jul-22 06:33N 34°38' E 135°09'3 3.4
2014-Jul-22 05:33N 34°41' E 135°11'0 0.3
2014-Jul-22 04:33N 34°41' E 135°11'3 3.3
2014-Jul-22 03:33N 34°38' E 135°09'1 0.1
2014-Jul-21 11:33N 34°38' E 135°10'2 2.3
2014-Jul-21 10:32N 34°40' E 135°11'1 0.6
2014-Jul-21 09:33N 34°39' E 135°11'1 1.0
2014-Jul-21 08:33N 34°39' E 135°11'2 1.9
2014-Jul-21 07:22N 34°41' E 135°11'4 4.3
2014-Jul-21 06:33N 34°38' E 135°09'4 3.3
2014-Jul-21 05:28N 34°41' E 135°11'0 0.4
2014-Jul-21 04:33N 34°40' E 135°11'3 3.3
2014-Jul-21 03:33N 34°38' E 135°09'3 3.5
2014-Jul-21 02:33N 34°41' E 135°11'3 0.2
2014-Jul-20 11:33N 34°38' E 135°11'2 1.9
2014-Jul-20 10:33N 34°40' E 135°11'1 0.8
2014-Jul-20 09:34N 34°39' E 135°11'0 0.3
2014-Jul-20 08:33N 34°39' E 135°11'2 1.9
2014-Jul-20 07:32N 34°41' E 135°11'3 3.2
2014-Jul-20 06:33N 34°38' E 135°09'3 3.1
2014-Jul-20 05:33N 34°41' E 135°11'0 0.3
2014-Jul-20 04:33N 34°41' E 135°11'3 3.1
2014-Jul-20 03:33N 34°38' E 135°09'3 3.2
2014-Jul-20 02:33N 34°41' E 135°11'3 0.2
2014-Jul-19 11:33N 34°38' E 135°11'2 1.9
2014-Jul-19 10:33N 34°40' E 135°11'0 0.4
2014-Jul-19 09:32N 34°39' E 135°11'1 1.4
2014-Jul-19 08:33N 34°39' E 135°10'2 2.2
2014-Jul-19 07:30N 34°41' E 135°11'2 2.3
2014-Jul-19 06:24N 34°38' E 135°10'3 2.8
2014-Jul-19 05:31N 34°41' E 135°11'0 0.3
2014-Jul-19 04:33N 34°41' E 135°11'3 2.5
2014-Jul-19 03:33N 34°38' E 135°10'3 2.6
2014-Jul-19 02:33N 34°41' E 135°11'0 0.1
2014-Jul-19 01:33N 34°41' E 135°11'0 0.0
2014-Jul-19 00:33N 34°41' E 135°11'0 0.0
2014-Jul-18 23:33N 34°41' E 135°11'0 0.0
2014-Jul-18 22:33N 34°41' E 135°11'0 0.0
2014-Jul-18 21:33N 34°41' E 135°11'0 0.0
2014-Jul-18 20:33N 34°41' E 135°11'0 0.0
2014-Jul-18 19:33N 34°41' E 135°11'0 0.0
2014-Jul-18 18:33N 34°41' E 135°11'0 0.0
2014-Jul-18 17:33N 34°41' E 135°11'0 0.0
2014-Jul-18 16:33N 34°41' E 135°11'0 0.0
2014-Jul-18 15:33N 34°41' E 135°11'0 0.0
2014-Jul-18 14:33N 34°41' E 135°11'0 0.0
2014-Jul-18 13:33N 34°41' E 135°11'0 0.0
2014-Jul-18 12:33N 34°41' E 135°11'3 2.7
2014-Jul-18 11:33N 34°38' E 135°11'2 1.7
2014-Jul-18 10:33N 34°40' E 135°11'1 0.6
2014-Jul-18 09:33N 34°39' E 135°11'1 0.9
2014-Jul-18 08:33N 34°38' E 135°11'2 2.1
2014-Jul-18 07:26N 34°41' E 135°11'4 4.0
2014-Jul-18 06:33N 34°38' E 135°09'4 3.5
2014-Jul-18 05:33N 34°41' E 135°11'0 0.3
2014-Jul-18 04:33N 34°41' E 135°11'3 3.5
2014-Jul-18 03:33N 34°38' E 135°09'4 3.6
2014-Jul-18 02:33N 34°41' E 135°11'3 0.2
2014-Jul-17 11:33N 34°38' E 135°10'2 2.3
2014-Jul-17 10:33N 34°40' E 135°11'1 0.8
2014-Jul-17 09:33N 34°39' E 135°11'1 0.9
2014-Jul-17 08:33N 34°39' E 135°11'2 2.2
2014-Jul-17 07:29N 34°41' E 135°11'3 3.6
2014-Jul-17 06:33N 34°38' E 135°09'3 2.7
2014-Jul-17 05:19N 34°41' E 135°11'0 0.5
2014-Jul-17 04:33N 34°41' E 135°11'3 3.0
2014-Jul-17 03:33N 34°38' E 135°09'3 3.1
2014-Jul-17 02:33N 34°41' E 135°11'3 0.2
2014-Jul-16 11:33N 34°38' E 135°11'2 1.6
2014-Jul-16 10:33N 34°40' E 135°11'1 0.6
2014-Jul-16 09:33N 34°39' E 135°11'1 0.8
2014-Jul-16 08:34N 34°39' E 135°11'2 2.1
2014-Jul-16 07:30N 34°41' E 135°11'3 3.2
2014-Jul-16 06:33N 34°38' E 135°10'3 2.8
2014-Jul-16 05:29N 34°41' E 135°11'1 0.6
2014-Jul-16 04:33N 34°40' E 135°12'3 2.8
2014-Jul-16 03:33N 34°38' E 135°10'1 0.0
2014-Jul-15 11:33N 34°38' E 135°10'3 2.8
2014-Jul-15 10:33N 34°41' E 135°11'1 1.4
2014-Jul-15 09:33N 34°39' E 135°11'1 1.0
2014-Jul-15 08:33N 34°38' E 135°11'2 2.1
2014-Jul-15 07:23N 34°41' E 135°11'3 4.0
2014-Jul-15 06:33N 34°38' E 135°09'3 3.0
2014-Jul-15 05:27N 34°41' E 135°11'0 0.4
2014-Jul-15 04:33N 34°41' E 135°11'3 3.5
2014-Jul-15 03:33N 34°38' E 135°09'1 0.1
2014-Jul-14 11:33N 34°38' E 135°11'2 2.0
2014-Jul-14 10:33N 34°40' E 135°11'1 0.9
2014-Jul-14 09:34N 34°39' E 135°11'1 0.7
2014-Jul-14 08:34N 34°39' E 135°11'2 1.9
2014-Jul-14 07:24N 34°41' E 135°11'3 3.7
2014-Jul-14 06:33N 34°38' E 135°09'3 2.9
2014-Jul-14 05:28N 34°41' E 135°11'0 0.2
2014-Jul-14 04:33N 34°41' E 135°11'3 3.2
2014-Jul-14 03:33N 34°38' E 135°09'3 3.2
2014-Jul-14 02:32N 34°41' E 135°11'3 0.2
2014-Jul-13 11:33N 34°38' E 135°11'2 1.7
2014-Jul-13 10:33N 34°40' E 135°11'1 0.5
2014-Jul-13 09:33N 34°39' E 135°11'1 0.9
2014-Jul-13 08:33N 34°38' E 135°11'2 2.1
2014-Jul-13 07:23N 34°41' E 135°11'3 3.4
2014-Jul-13 06:33N 34°38' E 135°10'3 2.8
2014-Jul-13 05:33N 34°41' E 135°11'0 0.3
2014-Jul-13 04:33N 34°41' E 135°11'3 3.3
2014-Jul-13 03:33N 34°38' E 135°09'3 3.5
2014-Jul-13 02:33N 34°41' E 135°11'3 0.2
2014-Jul-12 11:33N 34°38' E 135°11'  

Dump ship's entire track history